WA7RHK-2 Weather Reports


Display with metric or nautical units.
time (UTC)temp
F
wind
direction
speed
MPH
gust
MPH
rain 1hr
in
rain 24hr
in
rain mn
in
humidity
%
barometer
mb
20210927190017 88 184 1.0 7.0 0.00 0.00 0.00 47 1013.9
20210927184534 88 167 5.0 11.0 0.00 0.00 0.00 47 1014.2
20210927183013 88 122 0.0 7.0 0.00 0.00 0.00 47 1014.5
20210927181506 87 75 2.0 9.0 0.00 0.00 0.00 48 1014.8
20210927180007 87 152 5.0 9.0 0.00 0.00 0.00 49 1015.1
20210927174813 87 112 4.0 10.0 0.00 0.00 0.00 49 1015.3
20210927173128 86 205 2.0 9.0 0.00 0.00 0.00 53 1015.6
20210927171714 84 174 1.0 10.0 0.00 0.00 0.00 57 1015.7
20210927170244 84 98 3.0 9.0 0.00 0.00 0.00 58 1015.7
20210927164604 83 163 2.0 6.0 0.00 0.00 0.00 61 1016.0
20210927163155 81 167 3.0 7.0 0.00 0.00 0.00 65 1016.2
20210927161628 80 75 2.0 8.0 0.00 0.00 0.00 68 1016.4
20210927160109 79 179 2.0 7.0 0.00 0.00 0.00 67 1016.4
20210927154625 78 116 2.0 6.0 0.00 0.00 0.00 70 1016.4
20210927153150 77 186 0.0 4.0 0.00 0.00 0.00 71 1016.3
20210927151550 77 148 2.0 5.0 0.00 0.00 0.00 71 1016.4
20210927150100 76 163 0.0 2.0 0.00 0.00 0.00 71 1016.4
20210927144536 74 171 0.0 1.0 0.00 0.00 0.00 74 1016.3
20210927143102 72 165 0.0 3.0 0.00 0.00 0.00 77 1016.4
20210927141534 71 183 0.0 1.0 0.00 0.00 0.00 78 1016.3
20210927140027 71 184 0.0 3.0 0.00 0.00 0.00 77 1016.3
20210927134532 71 175 0.0 2.0 0.00 0.00 0.00 79 1016.0
20210927133021 69 120 0.0 1.0 0.00 0.00 0.00 82 1015.7
20210927131518 66 120 0.0 1.0 0.00 0.00 0.00 88 1015.6
20210927130033 64 120 0.0 1.0 0.00 0.00 0.00 88 1015.5
20210927124521 64 120 0.0 1.0 0.00 0.00 0.00 89 1015.4
20210927123021 64 120 0.0 1.0 0.00 0.00 0.00 89 1015.4
20210927121513 63 121 0.0 1.0 0.00 0.00 0.00 88 1015.4
20210927120036 63 121 0.0 1.0 0.00 0.00 0.00 88 1015.5
20210927114508 63 121 0.0 1.0 0.00 0.00 0.00 88 1015.3
20210927113033 64 121 0.0 0.0 0.00 0.00 0.00 87 1015.3
20210927111514 64 121 0.0 1.0 0.00 0.00 0.00 88 1015.3
20210927110018 63 121 0.0 0.0 0.00 0.00 0.00 87 1015.4
20210927104515 64 121 0.0 1.0 0.00 0.00 0.00 86 1015.3
20210927103002 64 121 0.0 1.0 0.00 0.00 0.00 85 1015.2
20210927101846 65 129 0.0 2.0 0.00 0.00 0.00 84 1015.2
20210927100243 65 160 0.0 0.0 0.00 0.00 0.00 84 1015.2
20210927094700 0 0.0 0.0 0.00 0.00 0.00 1015.3
20210927093149 0 0.0 0.0 0.00 0.00 0.00 1015.2
20210927091749 66 148 0.0 4.0 0.00 0.00 0.00 81 1015.3
20210927090128 67 170 0.0 3.0 0.00 0.00 0.00 80 1015.5
20210927084615 67 152 0.0 3.0 0.00 0.00 0.00 80 1015.5
20210927083113 67 163 0.0 5.0 0.00 0.00 0.00 80 1015.6
20210927081658 67 169 0.0 2.0 0.00 0.00 0.00 79 1015.7
20210927080039 67 165 0.0 3.0 0.00 0.00 0.00 79 1015.7
20210927074655 67 141 0.0 3.0 0.00 0.00 0.00 78 1015.7
20210927073150 68 165 0.0 4.0 0.00 0.00 0.00 77 1015.8
20210927071608 68 141 0.0 4.0 0.00 0.00 0.00 77 1015.7
20210927070141 68 150 0.0 2.0 0.00 0.00 0.00 76 1015.8
20210927064607 68 162 0.0 5.0 0.00 0.00 0.00 75 1015.7
20210927063058 68 143 0.0 4.0 0.00 0.00 0.00 74 1015.7
20210927061646 69 148 0.0 3.0 0.00 0.00 0.00 73 1015.6
20210927060057 69 149 0.0 3.0 0.00 0.00 0.00 72 1015.5
20210927054532 69 156 0.0 4.0 0.00 0.00 0.00 70 1015.6
20210927053116 69 139 0.0 2.0 0.00 0.00 0.00 68 1015.6
20210927051553 69 133 0.0 2.0 0.00 0.00 0.00 66 1015.6
20210927050108 70 159 0.0 2.0 0.00 0.00 0.00 64 1015.6
20210927044550 70 125 0.0 4.0 0.00 0.00 0.00 62 1015.4
20210927043022 71 113 0.0 3.0 0.00 0.00 0.00 60 1015.4
20210927041519 71 124 0.0 4.0 0.00 0.00 0.00 59 1015.4
20210927040018 72 137 0.0 4.0 0.00 0.00 0.00 58 1015.4
20210927034522 73 129 0.0 3.0 0.00 0.00 0.00 56 1015.3
20210927033026 74 113 2.0 6.0 0.00 0.00 0.00 54 1015.2
20210927031531 74 130 1.0 4.0 0.00 0.00 0.00 53 1015.2
20210927030017 74 132 1.0 4.0 0.00 0.00 0.00 52 1015.2
20210927024531 75 129 1.0 3.0 0.00 0.00 0.00 51 1015.0
20210927023016 75 134 1.0 4.0 0.00 0.00 0.00 50 1014.9
20210927021522 75 131 0.0 3.0 0.00 0.00 0.00 49 1014.8
20210927020012 76 130 1.0 4.0 0.00 0.00 0.00 47 1014.7
20210927014530 77 134 0.0 2.0 0.00 0.00 0.00 47 1014.6
20210927013018 77 132 0.0 3.0 0.00 0.00 0.00 46 1014.7
20210927011511 78 114 0.0 0.0 0.00 0.00 0.00 44 1014.6
20210927010010 79 132 0.0 3.0 0.00 0.00 0.00 43 1014.4
20210927004513 79 125 0.0 3.0 0.00 0.00 0.00 43 1014.3
20210927003009 81 123 0.0 4.0 0.00 0.00 0.00 41 1014.3
20210927001509 82 134 0.0 3.0 0.00 0.00 0.00 39 1014.1
20210927000013 84 120 0.0 5.0 0.00 0.00 0.00 38 1014.1
20210926234511 85 122 1.0 5.0 0.00 0.00 0.00 36 1014.1
20210926233012 85 124 1.0 7.0 0.00 0.00 0.00 34 1014.1
20210926231505 87 229 0.0 6.0 0.00 0.00 0.00 33 1014.1
20210926230014 87 148 0.0 5.0 0.00 0.00 0.00 32 1014.1
20210926224509 88 229 1.0 7.0 0.00 0.00 0.00 30 1014.1
20210926223001 88 183 1.0 5.0 0.00 0.00 0.00 31 1014.2
20210926221722 89 108 0.0 7.0 0.00 0.00 0.00 31 1014.2
20210926220112 88 37 0.0 4.0 0.00 0.00 0.00 32 1014.3
20210926214707 89 40 0.0 8.0 0.00 0.00 0.00 32 1014.4
20210926213451 89 129 2.0 8.0 0.00 0.00 0.00 32 1014.5
20210926211700 89 122 0.0 7.0 0.00 0.00 0.00 35 1014.6
20210926210146 88 125 0.0 9.0 0.00 0.00 0.00 35 1014.7
20210926204655 87 217 3.0 8.0 0.00 0.00 0.00 35 1014.9
20210926203128 88 131 1.0 6.0 0.00 0.00 0.00 35 1015.2
20210926201631 89 198 2.0 8.0 0.00 0.00 0.00 34 1015.4
20210926200113 88 104 1.0 6.0 0.00 0.00 0.00 36 1015.6
20210926194645 88 139 0.0 9.0 0.00 0.00 0.00 36 1015.9
20210926193044 88 210 1.0 9.0 0.00 0.00 0.00 37 1016.2
20210926191622 87 111 0.0 8.0 0.00 0.00 0.00 40 1016.4